Weather observations for the past three days for
Long Beach, Long Beach Airport
Imperial (Metric)
Date Time (pdt) Wind (mph) Vis. (mi.) Weather Sky Cond. Temperature (ºF) Relative Humidity Wind Chill (°F) Heat Index (°F) Pressure Precipitation (in)
Air Dwpt 6 hour altimeter (in) sea level (mb) 1 hr 3 hr 6 hr
Max. Min.
04 18:53 SW 13 G 21 10.00 Overcast OVC060 62.1 51.1 67% 29.96 1014.5
04 17:53 W 8 10.00 Overcast BKN070 OVC085 64.9 51.1 61% 29.96 1014.3
04 16:53 W 13 10.00 Overcast BKN039 OVC075 66 48.9 69.1 64.9 54% 29.96 1014.5
04 15:53 W 12 10.00 Overcast BKN043 BKN060 OVC085 66.9 48 51% 29.96 1014.4
04 14:53 SW 15 10.00 Overcast SCT041 BKN048 OVC055 66.9 48 51% 29.98 1015.0
04 13:53 SW 15 G 23 10.00 Overcast SCT041 BKN048 OVC055 66 51.1 59% 29.98 1015.2
04 12:53 S 12 10.00 Mostly Cloudy FEW046 BKN075 66.9 50 55% 29.99 1015.3
04 11:53 W 9 10.00 Mostly Cloudy BKN075 66.9 45 45% 30 1015.7
04 10:53 SW 8 10.00 Partly Cloudy SCT045 66 46 66.9 59 49% 30 1015.9
04 09:53 W 6 10.00 Partly Cloudy SCT037 64.9 46 51% 29.99 1015.6
04 08:53 SW 7 10.00 Fair CLR 62.1 48 60% 29.98 1015.2
04 07:53 W 8 10.00 Partly Cloudy FEW027 SCT070 61 48.9 65% 29.98 1015.1
04 06:53 W 6 10.00 Partly Cloudy SCT070 59 46.9 64% 29.97 1014.7
04 05:53 W 5 10.00 Overcast OVC060 60.1 48 65% 29.96 1014.6
04 04:53 W 5 10.00 Overcast OVC060 59 48.9 61 59 69% 29.96 1014.4
04 03:53 SW 5 10.00 Overcast OVC050 60.1 50 70% 29.96 1014.5
04 02:53 Calm 10.00 Mostly Cloudy BKN055 59 50 72% 29.95 1014.3
04 01:53 NW 5 10.00 Mostly Cloudy BKN055 60.1 50 70% 29.97 1014.6
04 00:53 W 8 10.00 Overcast OVC060 61 50 67% 29.99 1015.4
03 23:53 W 12 G 18 10.00 Overcast OVC055 61 48.9 65% 29.99 1015.3
03 22:53 W 10 10.00 Overcast OVC055 61 48.9 66 61 65% 29.97 1014.9
03 21:53 NW 7 10.00 Overcast FEW025 OVC055 61 51.1 70% 29.97 1014.8
03 20:53 W 7 10.00 Overcast OVC055 62.1 50 65% 29.95 1014.2
03 19:53 W 12 10.00 Overcast OVC055 62.1 50 65% 29.94 1013.8
03 17:53 W 7 G 17 10.00 Overcast SCT043 OVC055 64 51.1 63% 29.91 1012.7
03 16:53 W 14 10.00 Overcast BKN039 OVC046 64.9 51.1 70 64 61% 29.9 1012.4
03 15:53 NW 9 10.00 Overcast OVC043 66 48 52% 29.91 1012.8
03 14:53 SW 7 10.00 Overcast OVC047 66.9 46 47% 29.93 1013.4
03 13:53 S 9 10.00 Partly Cloudy SCT047 70 46.9 44% 29.93 1013.4
03 12:53 SW 6 10.00 Overcast OVC044 66.9 46.9 49% 29.94 1013.8
03 11:53 S 6 10.00 Overcast OVC044 66 48 52% 29.95 1014.3
03 10:53 S 5 10.00 Overcast OVC042 64 48.9 64.9 60.1 58% 29.96 1014.6
03 09:53 SW 6 10.00 Overcast OVC038 64 50 60% 29.95 1014.2
03 08:53 SW 5 10.00 Overcast OVC033 63 51.1 65% 29.95 1014.0
03 07:53 S 3 10.00 Overcast OVC032 62.1 52 70% 29.93 1013.5
03 06:53 S 3 10.00 Mostly Cloudy SCT015 BKN028 61 53.1 75% 29.91 1012.8
03 05:53 Calm 10.00 Overcast OVC026 61 53.1 75% 29.9 1012.6
03 04:53 Calm 10.00 Overcast OVC026 60.1 52 61 60.1 75% 29.89 1012.2
03 03:53 NW 5 10.00 Overcast OVC019 60.1 53.1 78% 29.9 1012.6
03 02:53 SW 5 10.00 Overcast OVC021 61 52 72% 29.9 1012.5
03 01:53 SW 7 10.00 Overcast OVC020 61 53.1 75% 29.92 1013.1
03 00:53 SW 5 10.00 Overcast OVC018 61 55 81% 29.92 1013.1
02 23:53 NW 3 10.00 Overcast OVC016 60.1 55 84% 29.91 1012.8
02 22:53 W 8 10.00 Mostly Cloudy BKN011 60.1 55 69.1 60.1 84% 29.91 1012.7
02 21:53 NW 8 10.00 Fair CLR 60.1 55 84% 29.91 1012.7
02 20:53 NW 7 10.00 Fair CLR 62.1 55 78% 29.88 1011.8
02 19:53 NW 8 10.00 Fair CLR 63 55 76% 29.86 1010.9
02 18:53 SW 5 10.00 Fair CLR 66 55 68% 29.83 1010.2
02 17:53 NW 5 10.00 Fair CLR 68 54 61% 29.83 1010.1
02 16:53 NW 9 10.00 Fair CLR 69.1 54 72 62.1 59% 29.84 1010.3
02 15:53 NW 10 10.00 Fair CLR 70 55 59% 29.85 1010.6
02 14:53 S 8 10.00 Fair CLR 69.1 55.9 63% 29.89 1012.0
02 13:53 S 10 10.00 Mostly Cloudy BKN019 68 55.9 65% 29.91 1012.8
02 12:53 S 10 10.00 Mostly Cloudy BKN019 66.9 55.9 68% 29.93 1013.3
02 11:53 SW 5 10.00 Overcast OVC016 64.9 55.9 73% 29.95 1014.1
02 10:53 Calm 10.00 Overcast OVC013 62.1 55.9 63 59 80% 29.96 1014.5
02 09:53 Calm 10.00 Overcast OVC010 61 55.9 84% 29.97 1014.9
02 08:53 Calm 8.00 Overcast OVC009 61 57 87% 29.98 1015.0
02 07:53 Calm 4.00 Fog/Mist OVC008 59 57 93% 29.96 1014.6
02 06:53 Calm 5.00 Fog/Mist OVC009 60.1 55.9 86% 29.95 1014.2
02 05:53 S 6 9.00 Overcast OVC008 59 55.9 90% 29.94 1013.9
02 04:53 SW 5 7.00 Overcast OVC010 60.1 55.9 61 59 86% 29.93 1013.4
02 03:53 Calm 8.00 Overcast OVC010 60.1 55.9 86% 29.92 1013.3
02 02:53 W 5 9.00 Overcast OVC013 60.1 55 84% 29.92 1013.0
02 01:53 NW 3 9.00 Overcast OVC018 60.1 55.9 86% 29.92 1013.3
02 00:53 N 3 10.00 Partly Cloudy SCT021 60.1 55 84% 29.93 1013.6
01 23:53 NW 3 10.00 Overcast OVC019 60.1 55.9 86% 29.94 1013.9
01 22:53 N 5 10.00 Overcast BKN013 OVC018 61 55.9 72 61 84% 29.94 1013.7
01 21:53 NW 7 10.00 Fair CLR 61 55.9 84% 29.94 1013.7
01 20:53 W 8 10.00 Fair CLR 62.1 55.9 80% 29.92 1013.0
01 19:53 W 9 10.00 Fair CLR 63 55.9 78% 29.89 1012.2
Date Time (pdt) Wind (mph) Vis. (mi.) Weather Sky Cond. Air Dwpt Max. Min. Relative Humidity Wind Chill (°F) Heat Index (°F) altimeter (in) sea level (mb) 1 hr 3 hr 6 hr
6 hour
Temperature (ºF) Pressure Precipitation (in)